Time;durP1;ratioP1;P1;durP2;ratioP2;P2;SDS_P1;SDS_P2;PMS_P1;PMS_P2;Temp;Humidity;BMP_temperature;BMP_pressure;BME280_temperature;BME280_humidity;BME280_pressure;Samples;Min_cycle;Max_cycle;Signal;HPM_P1;HPM_P2
2021/04/29 00:00:15;;;;;;;4.67;3.43;;;24.60;53.80;;;;;;5164422;27;20443;-42
2021/04/29 00:02:46;;;;;;;3.77;3.50;;;24.60;52.10;;;;;;5152735;27;20440;-41
2021/04/29 00:05:20;;;;;;;4.10;3.63;;;24.50;53.80;;;;;;5161059;27;20479;-42
2021/04/29 00:07:50;;;;;;;4.00;3.70;;;24.60;52.30;;;;;;5164549;27;20452;-42
2021/04/29 00:10:23;;;;;;;3.60;3.30;;;24.40;51.30;;;;;;5164719;27;20450;-42
2021/04/29 00:12:54;;;;;;;5.60;4.00;;;24.00;53.70;;;;;;5164175;27;20488;-42
2021/04/29 00:15:25;;;;;;;4.03;3.73;;;24.00;53.90;;;;;;5165304;27;20572;-41
2021/04/29 00:17:55;;;;;;;3.30;3.07;;;23.90;55.50;;;;;;5164212;27;20436;-41
2021/04/29 00:20:26;;;;;;;3.93;3.53;;;24.00;52.70;;;;;;5164377;27;20451;-41
2021/04/29 00:22:56;;;;;;;4.07;3.77;;;23.90;52.90;;;;;;5164267;27;20426;-41
2021/04/29 00:25:25;;;;;;;3.70;3.43;;;23.80;53.30;;;;;;5164405;27;20410;-41
2021/04/29 00:27:57;;;;;;;3.53;3.27;;;23.90;53.00;;;;;;5163688;27;20436;-41
2021/04/29 00:30:27;;;;;;;4.43;3.50;;;24.00;52.50;;;;;;5163415;27;20778;-41
2021/04/29 00:32:57;;;;;;;3.73;3.47;;;24.00;51.90;;;;;;5151461;27;20552;-43
2021/04/29 00:35:27;;;;;;;6.43;3.37;;;24.00;51.10;;;;;;5163337;27;20481;-43
2021/04/29 00:37:57;;;;;;;5.23;3.50;;;24.00;52.10;;;;;;5155666;27;20448;-41
2021/04/29 00:40:27;;;;;;;3.93;3.30;;;24.10;52.60;;;;;;5160169;27;20443;-41
2021/04/29 00:42:58;;;;;;;3.90;3.40;;;23.80;55.50;;;;;;5150713;27;20497;-41
2021/04/29 00:45:29;;;;;;;4.80;3.73;;;23.50;56.80;;;;;;5164517;27;20498;-42
2021/04/29 00:47:59;;;;;;;4.00;3.67;;;23.30;59.10;;;;;;5163957;27;20452;-43
2021/04/29 00:50:29;;;;;;;3.30;3.00;;;23.20;58.30;;;;;;5164257;27;20555;-42
2021/04/29 00:52:59;;;;;;;3.47;3.27;;;23.50;52.50;;;;;;5163272;27;20516;-42
2021/04/29 00:55:29;;;;;;;3.60;3.30;;;23.40;52.80;;;;;;5164362;27;20500;-42
2021/04/29 00:58:01;;;;;;;4.23;3.67;;;23.40;54.50;;;;;;5163855;27;20444;-42
2021/04/29 01:00:31;;;;;;;3.87;3.47;;;23.30;55.40;;;;;;5167414;27;20447;-42
2021/04/29 01:03:15;;;;;;;3.20;3.00;;;23.20;56.70;;;;;;5160004;27;20439;-42
2021/04/29 01:05:50;;;;;;;3.10;2.90;;;23.10;56.30;;;;;;5168423;27;20443;-42
2021/04/29 01:08:27;;;;;;;3.23;3.03;;;23.10;56.00;;;;;;5167245;27;20439;-42
2021/04/29 01:11:02;;;;;;;3.40;3.10;;;23.10;53.80;;;;;;5167558;27;20559;-42
2021/04/29 01:13:37;;;;;;;3.40;3.20;;;23.00;54.10;;;;;;5167078;27;20510;-42
2021/04/29 01:16:08;;;;;;;4.53;3.13;;;23.00;54.80;;;;;;5168013;27;20823;-41
2021/04/29 01:18:39;;;;;;;3.00;2.80;;;23.10;55.60;;;;;;5167704;27;20448;-41
2021/04/29 01:21:14;;;;;;;3.00;2.77;;;23.00;54.10;;;;;;5167866;27;20471;-40
2021/04/29 01:23:58;;;;;;;3.87;3.57;;;23.00;56.20;;;;;;5167441;27;20478;-41
2021/04/29 01:26:47;;;;;;;5.17;3.83;;;22.90;56.90;;;;;;5158451;27;20472;-41
2021/04/29 01:29:21;;;;;;;3.60;3.30;;;22.80;57.00;;;;;;5168184;27;20565;-41
2021/04/29 01:31:53;;;;;;;3.60;2.90;;;22.80;56.20;;;;;;5167677;27;20415;-42
2021/04/29 01:34:27;;;;;;;3.23;2.93;;;22.70;56.00;;;;;;5151867;27;20443;-42
2021/04/29 01:36:57;;;;;;;3.77;3.47;;;22.80;54.40;;;;;;5167837;27;20939;-41
2021/04/29 01:39:28;;;;;;;3.70;3.40;;;22.70;56.40;;;;;;5167189;27;20966;-42
2021/04/29 01:42:01;;;;;;;4.80;3.13;;;22.60;56.10;;;;;;5166088;27;20483;-42
2021/04/29 01:44:33;;;;;;;3.40;3.10;;;22.60;57.30;;;;;;5159122;27;20483;-42
2021/04/29 01:47:04;;;;;;;3.00;2.80;;;22.50;57.20;;;;;;5167133;27;20559;-42
2021/04/29 01:49:34;;;;;;;3.30;3.10;;;22.40;56.80;;;;;;5167477;27;20439;-42
2021/04/29 01:52:08;;;;;;;2.67;2.57;;;22.30;60.10;;;;;;5167239;27;20555;-41
2021/04/29 01:54:39;;;;;;;3.93;2.90;;;22.20;57.00;;;;;;5165459;27;20423;-42
2021/04/29 01:57:10;;;;;;;3.13;2.93;;;22.30;56.20;;;;;;5154334;27;20460;-41
2021/04/29 01:59:40;;;;;;;3.03;2.83;;;22.20;58.00;;;;;;5165810;27;21277;-42
2021/04/29 02:02:10;;;;;;;3.40;2.80;;;22.10;55.40;;;;;;5166915;27;20483;-41
2021/04/29 02:04:41;;;;;;;3.47;3.17;;;22.00;57.00;;;;;;5167881;27;20436;-41
2021/04/29 02:07:11;;;;;;;3.83;3.37;;;21.90;57.30;;;;;;5166295;27;20443;-41
2021/04/29 02:09:41;;;;;;;4.10;3.07;;;21.80;57.80;;;;;;5160982;27;20465;-41
2021/04/29 02:12:13;;;;;;;3.00;2.70;;;21.70;59.20;;;;;;5149610;27;20440;-41
2021/04/29 02:14:47;;;;;;;4.90;4.60;;;21.60;63.60;;;;;;5167303;27;20496;-41
2021/04/29 02:17:25;;;;;;;4.20;3.90;;;21.50;59.20;;;;;;5166714;27;20518;-41
2021/04/29 02:19:58;;;;;;;3.90;3.63;;;21.40;59.70;;;;;;5155425;27;20451;-41
2021/04/29 02:22:30;;;;;;;5.37;4.97;;;21.20;59.20;;;;;;5152888;27;20483;-41
2021/04/29 02:25:01;;;;;;;5.40;4.10;;;21.20;59.80;;;;;;5164500;27;21072;-40
2021/04/29 02:27:34;;;;;;;3.70;3.40;;;21.10;61.60;;;;;;5162726;27;20423;-41
2021/04/29 02:30:07;;;;;;;3.90;3.60;;;21.00;64.40;;;;;;5166913;27;20427;-41
2021/04/29 02:32:37;;;;;;;4.20;3.90;;;20.90;67.20;;;;;;5166239;27;20458;-40
2021/04/29 02:35:10;;;;;;;4.47;3.50;;;20.80;73.30;;;;;;5167376;27;20485;-41
2021/04/29 02:37:41;;;;;;;3.57;3.27;;;20.70;72.90;;;;;;5166610;27;20478;-42
2021/04/29 02:40:14;;;;;;;2.90;2.70;;;20.50;69.10;;;;;;5166213;27;20431;-41
2021/04/29 02:43:06;;;;;;;2.80;2.70;;;20.40;67.30;;;;;;5165363;27;20483;-41
2021/04/29 02:45:55;;;;;;;3.67;3.47;;;20.20;71.90;;;;;;5166465;27;20488;-42
2021/04/29 02:48:27;;;;;;;4.57;3.60;;;20.10;70.80;;;;;;5165347;27;20444;-41
2021/04/29 02:51:01;;;;;;;5.20;4.40;;;20.00;70.30;;;;;;5165789;27;20447;-40
2021/04/29 02:53:36;;;;;;;4.33;4.03;;;19.90;72.00;;;;;;5166345;27;20426;-40
2021/04/29 02:56:06;;;;;;;4.30;3.90;;;19.80;72.30;;;;;;5165866;27;20430;-42
2021/04/29 02:58:48;;;;;;;4.00;3.80;;;19.70;78.20;;;;;;5164937;27;20452;-41
2021/04/29 03:01:19;;;;;;;4.60;4.30;;;19.60;80.60;;;;;;5165924;27;20446;-40
2021/04/29 03:03:50;;;;;;;4.03;3.73;;;19.50;81.60;;;;;;5166967;27;20890;-39
2021/04/29 03:06:21;;;;;;;3.70;3.50;;;19.50;87.30;;;;;;5165144;27;20444;-40
2021/04/29 03:08:52;;;;;;;4.10;3.80;;;19.30;86.60;;;;;;5166460;27;20415;-40
2021/04/29 03:11:22;;;;;;;4.50;4.20;;;19.20;90.10;;;;;;5164280;27;20448;-40
2021/04/29 03:13:54;;;;;;;4.50;4.20;;;19.10;92.20;;;;;;5166127;27;20426;-40
2021/04/29 03:16:24;;;;;;;4.30;4.00;;;19.00;93.70;;;;;;5164021;27;20463;-40
2021/04/29 03:18:54;;;;;;;4.87;4.50;;;18.90;95.30;;;;;;5166110;27;20423;-40
2021/04/29 03:21:24;;;;;;;5.33;4.60;;;18.80;96.70;;;;;;5164662;27;20475;-41
2021/04/29 03:23:54;;;;;;;4.90;4.50;;;18.70;97.50;;;;;;5165964;27;20818;-40
2021/04/29 03:26:24;;;;;;;4.67;4.30;;;18.60;99.10;;;;;;5164022;27;20434;-40
2021/04/29 03:28:55;;;;;;;5.03;4.30;;;18.50;99.90;;;;;;5166156;27;20496;-41
2021/04/29 03:31:25;;;;;;;4.80;4.40;;;18.40;99.90;;;;;;5164648;27;20441;-42
2021/04/29 03:33:55;;;;;;;4.90;4.43;;;18.30;99.90;;;;;;5165857;27;20963;-41
2021/04/29 03:36:25;;;;;;;5.23;4.83;;;18.20;99.90;;;;;;5164295;27;20825;-41
2021/04/29 03:38:56;;;;;;;4.97;4.57;;;18.10;99.90;;;;;;5165944;27;20953;-41
2021/04/29 03:41:26;;;;;;;5.27;4.77;;;18.00;99.90;;;;;;5164030;27;20446;-41
2021/04/29 03:43:57;;;;;;;5.07;4.57;;;18.00;99.90;;;;;;5164980;27;20471;-40
2021/04/29 03:46:27;;;;;;;5.17;4.87;;;17.90;99.90;;;;;;5164504;27;20515;-40
2021/04/29 03:48:57;;;;;;;5.40;5.00;;;17.80;99.90;;;;;;5165686;27;20471;-42
2021/04/29 03:51:27;;;;;;;5.80;5.30;;;17.70;99.90;;;;;;5163714;27;20440;-39
2021/04/29 03:54:04;;;;;;;6.50;4.80;;;17.60;98.60;;;;;;5161792;27;20549;-40
2021/04/29 03:56:34;;;;;;;5.60;5.00;;;17.50;99.90;;;;;;5152721;27;20952;-41
2021/04/29 03:59:05;;;;;;;5.93;5.40;;;17.50;99.90;;;;;;5164464;27;20931;-42
2021/04/29 04:01:35;;;;;;;7.10;6.57;;;17.40;99.90;;;;;;5164099;27;20480;-42
2021/04/29 04:04:06;;;;;;;7.37;6.77;;;17.30;99.90;;;;;;5163639;27;20433;-42
2021/04/29 04:06:35;;;;;;;7.23;6.53;;;17.30;99.90;;;;;;5163669;27;20448;-40
2021/04/29 04:09:06;;;;;;;7.90;7.30;;;17.20;99.90;;;;;;5163521;27;20889;-40
2021/04/29 04:11:36;;;;;;;8.80;8.00;;;17.20;99.90;;;;;;5163217;27;20448;-41
2021/04/29 04:14:07;;;;;;;8.87;8.10;;;17.10;99.90;;;;;;5165614;27;20543;-41
2021/04/29 04:16:37;;;;;;;9.27;8.40;;;17.00;99.90;;;;;;5163942;27;20466;-40
2021/04/29 04:19:07;;;;;;;8.33;7.63;;;17.00;99.90;;;;;;5164551;27;20436;-41
2021/04/29 04:21:37;;;;;;;8.60;7.53;;;16.90;99.90;;;;;;5164342;27;20520;-40
2021/04/29 04:24:08;;;;;;;8.40;7.80;;;16.90;99.90;;;;;;5164056;27;20527;-41
2021/04/29 04:26:38;;;;;;;8.07;7.47;;;16.80;99.90;;;;;;5162746;27;20570;-41
2021/04/29 04:29:09;;;;;;;7.87;7.27;;;16.70;99.90;;;;;;5164248;27;20472;-41
2021/04/29 04:31:39;;;;;;;8.00;7.40;;;16.70;99.90;;;;;;5162773;27;20462;-41
2021/04/29 04:34:09;;;;;;;7.07;6.47;;;16.60;99.90;;;;;;5145461;27;20445;-40
2021/04/29 04:36:39;;;;;;;8.20;7.50;;;16.50;99.90;;;;;;5163914;27;21950;-41
2021/04/29 04:39:09;;;;;;;7.47;6.87;;;16.40;99.90;;;;;;5163615;27;20447;-41
2021/04/29 04:41:39;;;;;;;7.60;6.87;;;16.40;99.90;;;;;;5161902;27;20479;-40
2021/04/29 04:44:12;;;;;;;8.00;7.40;;;16.30;99.90;;;;;;5163562;27;20448;-41
2021/04/29 04:46:42;;;;;;;7.97;7.30;;;16.30;99.90;;;;;;5165088;27;20440;-41
2021/04/29 04:49:12;;;;;;;7.53;6.93;;;16.20;99.90;;;;;;5164618;27;20448;-40
2021/04/29 04:51:42;;;;;;;8.53;7.83;;;16.10;99.90;;;;;;5162426;27;20462;-40
2021/04/29 04:54:12;;;;;;;6.77;6.17;;;16.10;99.90;;;;;;5163341;27;20456;-41
2021/04/29 04:56:43;;;;;;;6.10;5.60;;;16.10;99.90;;;;;;5159464;27;20452;-40
2021/04/29 04:59:14;;;;;;;7.07;6.20;;;15.90;99.90;;;;;;5164658;27;20451;-40
2021/04/29 05:01:44;;;;;;;6.60;6.00;;;15.90;99.90;;;;;;5163710;27;20463;-40
2021/04/29 05:04:14;;;;;;;7.13;6.53;;;15.80;99.90;;;;;;5161104;27;20440;-39
2021/04/29 05:06:45;;;;;;;11.27;7.17;;;15.80;99.90;;;;;;5163871;27;20486;-38
2021/04/29 05:09:16;;;;;;;6.40;5.80;;;15.80;99.90;;;;;;5165251;27;20833;-39
2021/04/29 05:11:46;;;;;;;6.23;5.73;;;15.70;99.90;;;;;;5163206;27;20516;-41
2021/04/29 05:14:17;;;;;;;7.30;6.80;;;15.60;99.90;;;;;;5159046;27;20546;-39
2021/04/29 05:16:47;;;;;;;9.77;8.87;;;15.50;99.90;;;;;;5163837;27;20443;-40
2021/04/29 05:19:18;;;;;;;9.13;8.30;;;15.50;99.90;;;;;;5164298;27;20495;-41
2021/04/29 05:21:47;;;;;;;8.67;7.90;;;15.40;99.90;;;;;;5163120;27;20537;-41
2021/04/29 05:24:18;;;;;;;8.97;8.17;;;15.40;99.90;;;;;;5163803;27;20448;-41
2021/04/29 05:26:48;;;;;;;8.63;7.73;;;15.40;99.90;;;;;;5154077;27;20444;-40
2021/04/29 05:29:19;;;;;;;7.80;7.17;;;15.40;99.90;;;;;;5162545;27;20440;-41
2021/04/29 05:31:49;;;;;;;8.60;7.80;;;15.40;99.90;;;;;;5163161;27;20488;-38
2021/04/29 05:34:19;;;;;;;8.60;7.70;;;15.40;99.90;;;;;;5162423;27;20918;-40
2021/04/29 05:36:49;;;;;;;8.83;8.03;;;15.40;99.90;;;;;;5161048;27;20548;-40
2021/04/29 05:39:19;;;;;;;9.40;8.60;;;15.30;99.90;;;;;;5162761;27;20524;-39
2021/04/29 05:41:49;;;;;;;10.63;9.70;;;15.30;99.90;;;;;;5162797;27;20483;-40
2021/04/29 05:44:21;;;;;;;12.57;11.57;;;15.30;99.90;;;;;;5159803;27;20443;-40
2021/04/29 05:46:51;;;;;;;13.93;12.73;;;15.30;99.90;;;;;;5167561;27;20444;-41
2021/04/29 05:49:21;;;;;;;15.03;13.67;;;15.20;99.90;;;;;;5167054;27;20600;-41
2021/04/29 05:51:51;;;;;;;11.60;10.60;;;15.20;99.90;;;;;;5166562;27;20444;-39
2021/04/29 05:54:22;;;;;;;9.30;8.57;;;15.20;99.90;;;;;;5167068;27;20764;-41
2021/04/29 05:56:52;;;;;;;10.10;9.13;;;15.00;99.90;;;;;;5154051;27;20455;-40
2021/04/29 05:59:23;;;;;;;9.87;9.07;;;15.00;99.90;;;;;;5167173;27;20474;-40
2021/04/29 06:01:53;;;;;;;10.00;9.13;;;15.00;99.90;;;;;;5165693;27;20808;-39
2021/04/29 06:04:42;;;;;;;11.13;8.67;;;15.00;99.90;;;;;;5164231;27;20943;-40
2021/04/29 06:07:13;;;;;;;9.00;8.23;;;14.90;99.90;;;;;;5166748;27;20509;-39
2021/04/29 06:09:43;;;;;;;10.17;9.17;;;14.80;99.90;;;;;;5167364;27;20459;-40
2021/04/29 06:12:18;;;;;;;10.07;9.07;;;14.80;99.90;;;;;;5165611;27;20466;-40
2021/04/29 06:14:49;;;;;;;8.93;8.10;;;14.80;99.90;;;;;;5166776;27;20451;-38
2021/04/29 06:17:19;;;;;;;8.87;7.97;;;14.70;99.90;;;;;;5167019;27;20459;-40
2021/04/29 06:19:49;;;;;;;8.43;7.73;;;14.70;99.90;;;;;;5167155;27;20443;-40
2021/04/29 06:22:19;;;;;;;8.57;7.97;;;14.70;99.90;;;;;;5166139;27;20483;-39
2021/04/29 06:24:49;;;;;;;8.43;7.73;;;14.70;99.90;;;;;;5161892;27;20975;-40
2021/04/29 06:27:19;;;;;;;8.93;8.13;;;14.70;99.90;;;;;;5161335;27;20436;-40
2021/04/29 06:29:51;;;;;;;9.17;8.33;;;14.60;99.90;;;;;;5165949;27;20440;-40
2021/04/29 06:32:20;;;;;;;8.73;7.73;;;14.60;99.90;;;;;;5165998;27;20448;-40
2021/04/29 06:34:51;;;;;;;10.00;8.50;;;14.60;99.90;;;;;;5166239;27;20810;-39
2021/04/29 06:37:21;;;;;;;8.00;7.30;;;14.60;99.90;;;;;;5166491;27;20451;-41
2021/04/29 06:39:51;;;;;;;8.60;7.90;;;14.50;99.90;;;;;;5166588;27;20473;-41
2021/04/29 06:42:21;;;;;;;7.97;7.37;;;14.60;99.90;;;;;;5162809;27;20464;-41
2021/04/29 06:44:58;;;;;;;9.00;8.17;;;14.60;99.90;;;;;;5157674;27;20603;-41
2021/04/29 06:47:32;;;;;;;8.87;8.00;;;14.60;99.90;;;;;;5165906;27;20476;-40
2021/04/29 06:50:02;;;;;;;9.53;8.73;;;14.60;99.90;;;;;;5166553;27;20448;-42
2021/04/29 06:52:32;;;;;;;9.23;8.23;;;14.50;99.90;;;;;;5165677;27;20940;-40
2021/04/29 06:55:02;;;;;;;9.23;8.40;;;14.50;99.90;;;;;;5166254;27;20796;-40
2021/04/29 06:57:32;;;;;;;8.23;7.50;;;14.40;99.90;;;;;;5164103;27;20440;-40
2021/04/29 07:00:04;;;;;;;10.20;7.90;;;14.40;99.90;;;;;;5166478;27;20444;-40
2021/04/29 07:02:34;;;;;;;8.57;7.67;;;14.30;99.90;;;;;;5164785;27;20483;-40
2021/04/29 07:05:06;;;;;;;9.10;8.20;;;14.30;99.90;;;;;;5165887;27;20444;-41
2021/04/29 07:07:36;;;;;;;7.97;7.23;;;14.20;99.90;;;;;;5165690;27;20452;-40
2021/04/29 07:10:07;;;;;;;8.17;7.40;;;14.20;99.90;;;;;;5165452;27;20443;-42
2021/04/29 07:12:38;;;;;;;9.10;8.20;;;14.20;99.90;;;;;;5164730;27;20440;-40
2021/04/29 07:15:11;;;;;;;7.87;7.17;;;14.10;99.90;;;;;;5158726;27;20447;-40
2021/04/29 07:17:41;;;;;;;8.30;7.40;;;14.00;99.90;;;;;;5164799;27;20444;-40
2021/04/29 07:20:12;;;;;;;8.10;7.40;;;14.00;99.90;;;;;;5166061;27;20458;-40
2021/04/29 07:22:42;;;;;;;7.80;7.10;;;14.10;99.90;;;;;;5165300;27;20563;-40
2021/04/29 07:25:13;;;;;;;7.27;6.60;;;14.00;99.90;;;;;;5165591;27;20481;-40
2021/04/29 07:27:43;;;;;;;9.00;8.10;;;13.90;99.90;;;;;;5165157;27;20461;-40
2021/04/29 07:30:14;;;;;;;7.30;6.80;;;13.80;99.90;;;;;;5165538;27;20448;-40
2021/04/29 07:32:44;;;;;;;7.47;6.87;;;13.80;99.90;;;;;;5164725;27;20480;-41
2021/04/29 07:35:15;;;;;;;7.10;6.53;;;13.80;99.90;;;;;;5164794;27;20547;-39
2021/04/29 07:37:45;;;;;;;9.10;8.20;;;13.80;99.90;;;;;;5165073;27;20774;-40
2021/04/29 07:40:15;;;;;;;7.73;7.03;;;13.70;99.90;;;;;;5166026;27;20448;-40
2021/04/29 07:42:45;;;;;;;7.97;7.23;;;13.60;99.90;;;;;;5164521;27;20467;-42
2021/04/29 07:45:17;;;;;;;8.27;7.67;;;13.50;99.90;;;;;;5164525;27;20501;-42
2021/04/29 07:47:47;;;;;;;8.53;7.23;;;13.40;99.90;;;;;;5164727;27;20448;-41
2021/04/29 07:50:18;;;;;;;8.10;7.30;;;13.40;99.90;;;;;;5165569;27;20492;-40
2021/04/29 07:52:48;;;;;;;8.20;7.60;;;13.40;99.90;;;;;;5165094;27;20456;-41
2021/04/29 07:55:19;;;;;;;8.93;7.33;;;13.40;99.90;;;;;;5165110;27;20782;-39
2021/04/29 07:57:49;;;;;;;8.00;7.30;;;13.40;99.90;;;;;;5164316;27;20504;-40
2021/04/29 08:00:21;;;;;;;8.37;7.63;;;13.40;99.90;;;;;;5163103;27;20946;-40
2021/04/29 08:02:51;;;;;;;8.00;7.30;;;13.30;99.90;;;;;;5160144;27;20476;-38
2021/04/29 08:05:21;;;;;;;7.63;6.93;;;13.30;99.90;;;;;;5164768;27;20455;-40
2021/04/29 08:07:51;;;;;;;8.27;7.47;;;13.20;99.90;;;;;;5164282;27;20496;-40
2021/04/29 08:10:21;;;;;;;8.33;7.73;;;13.20;99.90;;;;;;5164961;27;20473;-40
2021/04/29 08:12:52;;;;;;;7.67;6.70;;;13.20;99.90;;;;;;5164153;27;20503;-40
2021/04/29 08:15:23;;;;;;;8.00;7.40;;;13.10;99.90;;;;;;5163764;27;20440;-39
2021/04/29 08:17:53;;;;;;;7.60;6.90;;;13.10;99.90;;;;;;5164459;27;20444;-38
2021/04/29 08:20:23;;;;;;;8.13;7.33;;;13.00;99.90;;;;;;5165483;27;20465;-39
2021/04/29 08:22:53;;;;;;;8.80;7.63;;;13.00;99.90;;;;;;5163961;27;20497;-40
2021/04/29 08:25:23;;;;;;;8.25;7.45;;;12.90;99.90;;;;;;5164056;27;20440;-40
2021/04/29 08:27:53;;;;;;;7.23;6.63;;;12.90;99.90;;;;;;5163200;27;20234;-40
2021/04/29 08:30:27;;;;;;;8.63;7.93;;;12.80;99.90;;;;;;5164701;27;20842;-40
2021/04/29 08:32:57;;;;;;;8.97;8.17;;;12.80;99.90;;;;;;5164642;27;20448;-39
2021/04/29 08:35:28;;;;;;;10.13;7.53;;;12.70;99.90;;;;;;5164600;27;20447;-40
2021/04/29 08:37:58;;;;;;;7.60;6.90;;;12.70;99.90;;;;;;5164599;27;20472;-40
2021/04/29 08:40:30;;;;;;;7.90;7.30;;;12.70;99.90;;;;;;5164989;27;20851;-38
2021/04/29 08:43:00;;;;;;;8.13;7.33;;;12.70;99.90;;;;;;5163130;27;20479;-40
2021/04/29 08:45:50;;;;;;;10.00;8.13;;;12.70;99.90;;;;;;5163434;27;20492;-40
2021/04/29 08:48:24;;;;;;;7.70;6.95;;;12.70;99.90;;;;;;5164943;27;20443;-41
2021/04/29 08:50:54;;;;;;;8.33;7.20;;;12.70;99.90;;;;;;5164655;27;20598;-39
2021/04/29 08:53:24;;;;;;;7.75;7.03;;;12.60;99.90;;;;;;5163573;27;20559;-40
2021/04/29 08:55:55;;;;;;;8.88;7.97;;;12.50;99.90;;;;;;5164172;27;20198;-40
2021/04/29 08:58:25;;;;;;;7.77;7.10;;;12.50;99.90;;;;;;5163368;27;20251;-39
2021/04/29 09:01:03;;;;;;;7.80;7.10;;;12.50;99.90;;;;;;5163840;27;20447;-37
2021/04/29 09:03:35;;;;;;;9.37;7.60;;;12.50;99.90;;;;;;5164122;27;20226;-39
2021/04/29 09:06:05;;;;;;;8.00;7.40;;;12.40;99.90;;;;;;5159171;27;20534;-39
2021/04/29 09:08:37;;;;;;;7.63;7.03;;;12.40;99.90;;;;;;5164357;27;20440;-39
2021/04/29 09:11:09;;;;;;;8.00;7.20;;;12.40;99.90;;;;;;5164760;27;20448;-39
2021/04/29 09:13:39;;;;;;;8.70;7.07;;;12.40;99.90;;;;;;5163794;27;20946;-39
2021/04/29 09:16:12;;;;;;;8.07;7.28;;;12.40;99.90;;;;;;5162902;27;20447;-40
2021/04/29 09:18:42;;;;;;;7.30;6.70;;;12.30;99.90;;;;;;5164091;27;20248;-41
2021/04/29 09:21:14;;;;;;;6.80;6.30;;;12.30;99.90;;;;;;5168022;27;20448;-39
2021/04/29 09:23:46;;;;;;;6.70;6.10;;;12.40;99.90;;;;;;5169182;27;20527;-37
2021/04/29 09:26:21;;;;;;;6.80;6.20;;;12.30;99.90;;;;;;5160145;27;20198;-39
2021/04/29 09:28:53;;;;;;;7.13;6.60;;;12.30;99.90;;;;;;5167923;27;20447;-39
2021/04/29 09:31:25;;;;;;;5.57;5.17;;;12.30;99.90;;;;;;5167934;27;20198;-38
2021/04/29 09:33:57;;;;;;;7.57;6.55;;;12.20;99.90;;;;;;5167734;27;20448;-39
2021/04/29 09:36:29;;;;;;;6.30;5.80;;;12.30;99.90;;;;;;5167242;27;20220;-40
2021/04/29 09:39:01;;;;;;;5.97;5.47;;;12.30;99.90;;;;;;5168736;27;20444;-38
2021/04/29 09:41:32;;;;;;;4.97;4.63;;;12.20;99.90;;;;;;5167625;27;20195;-38
2021/04/29 09:44:04;;;;;;;5.95;5.50;;;12.20;99.90;;;;;;5168433;27;20219;-40
2021/04/29 09:46:46;;;;;;;6.00;5.60;;;12.20;99.90;;;;;;5166742;27;20223;-38
2021/04/29 09:49:23;;;;;;;5.97;5.50;;;12.30;99.90;;;;;;5167854;27;20472;-38
2021/04/29 09:51:54;;;;;;;6.03;5.40;;;12.20;99.90;;;;;;5167454;27;20452;-40
2021/04/29 09:54:28;;;;;;;7.75;5.03;;;12.20;99.90;;;;;;5167935;27;20444;-40
2021/04/29 09:57:00;;;;;;;5.50;5.00;;;12.20;99.90;;;;;;5166564;27;20683;-40
2021/04/29 09:59:31;;;;;;;6.32;5.65;;;12.20;99.90;;;;;;5156402;27;20768;-39
2021/04/29 10:02:03;;;;;;;6.03;5.63;;;12.20;99.90;;;;;;5166756;27;20259;-40
2021/04/29 10:04:34;;;;;;;6.32;5.82;;;12.20;99.90;;;;;;5167089;27;20535;-40
2021/04/29 10:07:05;;;;;;;5.53;5.03;;;12.20;99.90;;;;;;5167143;27;20233;-39
2021/04/29 10:09:36;;;;;;;6.23;5.60;;;12.10;99.90;;;;;;5150757;27;20203;-38
2021/04/29 10:12:08;;;;;;;7.35;5.95;;;12.00;99.90;;;;;;5166776;27;20444;-38
2021/04/29 10:14:45;;;;;;;6.15;5.43;;;12.00;99.90;;;;;;5167796;27;20213;-39
2021/04/29 10:17:17;;;;;;;6.50;5.80;;;12.00;99.90;;;;;;5166274;27;20199;-37
2021/04/29 10:19:47;;;;;;;6.60;5.73;;;12.00;99.90;;;;;;5158212;27;20469;-39
2021/04/29 10:22:18;;;;;;;6.50;5.67;;;12.00;99.90;;;;;;5166675;27;20475;-38
2021/04/29 10:24:49;;;;;;;6.38;5.80;;;12.00;99.90;;;;;;5154600;27;20441;-40
2021/04/29 10:27:25;;;;;;;6.15;5.65;;;12.00;99.90;;;;;;5162160;27;20194;-40
2021/04/29 10:30:08;;;;;;;6.15;5.65;;;11.90;99.90;;;;;;5166050;27;20194;-39
2021/04/29 10:32:39;;;;;;;5.80;5.30;;;11.90;99.90;;;;;;5166835;27;20198;-38
2021/04/29 10:35:18;;;;;;;6.65;5.13;;;11.90;99.90;;;;;;5166842;27;20443;-40
2021/04/29 10:37:59;;;;;;;6.30;5.80;;;11.90;99.90;;;;;;5165515;27;20646;-39
2021/04/29 10:40:36;;;;;;;6.37;5.77;;;11.90;99.90;;;;;;5167272;27;20555;-40
2021/04/29 10:43:07;;;;;;;6.17;5.67;;;11.80;99.90;;;;;;5165925;27;20471;-40
2021/04/29 10:45:38;;;;;;;6.23;5.70;;;11.80;99.90;;;;;;5166432;27;20492;-38
2021/04/29 10:48:11;;;;;;;6.70;6.10;;;11.80;99.90;;;;;;5165849;27;20447;-37
2021/04/29 10:50:45;;;;;;;8.68;6.55;;;11.80;99.90;;;;;;5165945;27;20711;-40
2021/04/29 10:53:26;;;;;;;7.20;6.60;;;11.70;99.90;;;;;;5165828;27;20198;-39
2021/04/29 10:56:01;;;;;;;6.35;5.85;;;11.70;99.90;;;;;;5165736;27;20444;-40
2021/04/29 10:58:32;;;;;;;6.65;6.03;;;11.60;99.90;;;;;;5164670;27;20385;-40
2021/04/29 11:01:06;;;;;;;7.20;6.50;;;11.70;99.90;;;;;;5166944;27;20665;-39
2021/04/29 11:03:40;;;;;;;7.13;6.53;;;11.60;99.90;;;;;;5165961;27;20288;-36
2021/04/29 11:06:15;;;;;;;7.10;6.50;;;11.60;99.90;;;;;;5166073;27;20468;-38
2021/04/29 11:08:48;;;;;;;6.43;5.90;;;11.50;99.90;;;;;;5166084;27;20458;-39
2021/04/29 11:11:35;;;;;;;6.37;5.80;;;11.50;99.90;;;;;;5165204;27;20501;-40
2021/04/29 11:14:08;;;;;;;6.35;5.78;;;11.40;99.90;;;;;;5165941;27;20448;-39
2021/04/29 11:16:50;;;;;;;6.07;5.68;;;11.30;99.90;;;;;;5159938;27;20195;-39
2021/04/29 11:19:42;;;;;;;7.70;7.00;;;11.30;99.90;;;;;;5153950;27;20187;-37
2021/04/29 11:22:13;;;;;;;6.70;6.10;;;11.30;99.90;;;;;;5165894;27;20853;-38
2021/04/29 11:24:47;;;;;;;7.30;6.70;;;11.30;99.90;;;;;;5164925;27;20202;-40
2021/04/29 11:27:28;;;;;;;7.45;6.47;;;11.30;99.90;;;;;;5163194;27;20198;-39
2021/04/29 11:30:01;;;;;;;6.90;6.30;;;11.30;99.90;;;;;;5166134;27;20198;-40
2021/04/29 11:32:33;;;;;;;8.07;6.80;;;11.20;99.90;;;;;;5164718;27;20545;-40
2021/04/29 11:35:05;;;;;;;7.18;6.50;;;11.20;99.90;;;;;;5165128;27;20233;-40
2021/04/29 11:37:43;;;;;;;7.18;6.57;;;11.10;99.90;;;;;;5165631;27;20198;-41
2021/04/29 11:40:14;;;;;;;6.82;6.32;;;11.10;99.90;;;;;;5165456;27;20197;-39
2021/04/29 11:42:52;;;;;;;7.63;6.55;;;11.10;99.90;;;;;;5163997;27;20233;-39
2021/04/29 11:45:25;;;;;;;7.70;7.10;;;11.20;99.90;;;;;;5165117;27;20260;-39
2021/04/29 11:48:00;;;;;;;7.30;6.70;;;11.20;99.90;;;;;;5164764;27;20204;-40
2021/04/29 11:50:33;;;;;;;7.18;6.57;;;11.20;99.90;;;;;;5165596;27;20638;-39
2021/04/29 11:53:12;;;;;;;6.88;6.18;;;11.10;99.90;;;;;;5165259;27;20219;-40
2021/04/29 11:55:44;;;;;;;7.50;6.80;;;11.10;99.90;;;;;;5164969;27;20273;-40
2021/04/29 11:58:16;;;;;;;7.32;6.63;;;11.10;99.90;;;;;;5163946;27;20206;-39
2021/04/29 12:00:48;;;;;;;8.10;7.25;;;11.00;99.90;;;;;;5165205;27;20202;-39
2021/04/29 12:03:18;;;;;;;6.72;6.22;;;10.90;99.90;;;;;;5164372;27;20232;-39
2021/04/29 12:05:51;;;;;;;7.38;6.68;;;10.90;99.90;;;;;;5164754;27;20194;-41
2021/04/29 12:08:22;;;;;;;6.35;5.85;;;10.90;99.90;;;;;;5164720;27;20239;-39
2021/04/29 12:10:53;;;;;;;7.00;6.40;;;10.90;99.90;;;;;;5164808;27;20599;-38
2021/04/29 12:13:31;;;;;;;6.88;6.28;;;10.80;99.90;;;;;;5163454;27;20238;-41
2021/04/29 12:16:02;;;;;;;6.80;6.30;;;10.80;99.90;;;;;;5149616;27;20199;-37
2021/04/29 12:18:33;;;;;;;6.53;6.03;;;10.80;99.90;;;;;;5153442;27;20198;-38
2021/04/29 12:21:06;;;;;;;7.68;6.85;;;10.70;99.90;;;;;;5164140;27;20255;-39
2021/04/29 12:23:36;;;;;;;7.85;7.35;;;10.70;99.90;;;;;;5163927;27;20267;-39
2021/04/29 12:26:07;;;;;;;7.90;6.82;;;10.70;99.90;;;;;;5160812;27;20198;-39
2021/04/29 12:28:39;;;;;;;7.80;7.10;;;10.70;99.90;;;;;;5163159;27;20251;-40
2021/04/29 12:31:16;;;;;;;7.25;6.68;;;10.60;99.90;;;;;;5164511;27;20226;-39
2021/04/29 12:33:59;;;;;;;7.97;7.10;;;10.60;99.90;;;;;;5164605;27;20262;-40
2021/04/29 12:36:33;;;;;;;7.20;6.50;;;10.50;99.90;;;;;;5163942;27;20234;-39
2021/04/29 12:39:13;;;;;;;6.90;6.40;;;10.50;99.90;;;;;;5163784;27;20194;-40
2021/04/29 12:41:58;;;;;;;8.27;7.43;;;10.40;99.90;;;;;;5163083;27;20187;-39
2021/04/29 12:44:37;;;;;;;7.22;6.53;;;10.30;99.90;;;;;;5164756;27;20290;-38
2021/04/29 12:47:08;;;;;;;6.97;6.43;;;10.30;99.90;;;;;;5163895;27;20273;-39
2021/04/29 12:49:43;;;;;;;7.13;6.53;;;10.30;99.90;;;;;;5164374;27;20280;-37
2021/04/29 12:52:15;;;;;;;7.38;6.78;;;10.20;99.90;;;;;;5163810;27;20199;-40
2021/04/29 12:54:45;;;;;;;8.00;7.32;;;10.20;99.90;;;;;;5166238;27;20294;-40
2021/04/29 12:57:23;;;;;;;7.70;7.00;;;10.20;99.90;;;;;;5167619;27;20191;-40
2021/04/29 12:59:55;;;;;;;6.97;6.45;;;10.10;99.90;;;;;;5168527;27;20286;-39
2021/04/29 13:02:27;;;;;;;7.03;6.43;;;10.20;99.90;;;;;;5168593;27;20251;-40
2021/04/29 13:05:02;;;;;;;9.15;6.43;;;10.10;99.90;;;;;;5167999;27;20194;-39
2021/04/29 13:07:35;;;;;;;6.78;6.25;;;10.10;99.90;;;;;;5168287;27;20237;-39
2021/04/29 13:10:16;;;;;;;7.72;7.15;;;10.00;99.90;;;;;;5168303;27;20210;-40